sensor_id;sensor_type;location;lat;lon;timestamp;P1;durP1;ratioP1;P2;durP2;ratioP2
19877;SDS011;10101;52.204;9.910;2023-09-19T00:00:15;1.23;;;0.90;;
19877;SDS011;10101;52.204;9.910;2023-09-19T00:02:45;1.30;;;0.93;;
19877;SDS011;10101;52.204;9.910;2023-09-19T00:05:13;1.10;;;0.90;;
19877;SDS011;10101;52.204;9.910;2023-09-19T00:07:40;1.97;;;1.00;;
19877;SDS011;10101;52.204;9.910;2023-09-19T00:10:07;1.10;;;0.80;;
19877;SDS011;10101;52.204;9.910;2023-09-19T00:12:35;1.40;;;0.90;;
19877;SDS011;10101;52.204;9.910;2023-09-19T00:15:02;1.30;;;1.00;;
19877;SDS011;10101;52.204;9.910;2023-09-19T00:17:29;2.10;;;1.10;;
19877;SDS011;10101;52.204;9.910;2023-09-19T00:19:58;0.87;;;0.80;;
19877;SDS011;10101;52.204;9.910;2023-09-19T00:22:32;2.50;;;1.07;;
19877;SDS011;10101;52.204;9.910;2023-09-19T00:24:59;2.13;;;1.10;;
19877;SDS011;10101;52.204;9.910;2023-09-19T00:27:26;2.07;;;0.97;;
19877;SDS011;10101;52.204;9.910;2023-09-19T00:29:53;1.63;;;1.13;;
19877;SDS011;10101;52.204;9.910;2023-09-19T00:32:20;1.33;;;1.13;;
19877;SDS011;10101;52.204;9.910;2023-09-19T00:34:46;1.70;;;1.20;;
19877;SDS011;10101;52.204;9.910;2023-09-19T00:37:15;2.03;;;1.23;;
19877;SDS011;10101;52.204;9.910;2023-09-19T00:39:43;1.30;;;1.10;;
19877;SDS011;10101;52.204;9.910;2023-09-19T00:42:11;5.03;;;1.90;;
19877;SDS011;10101;52.204;9.910;2023-09-19T00:44:45;4.17;;;2.00;;
19877;SDS011;10101;52.204;9.910;2023-09-19T00:47:12;4.20;;;2.27;;
19877;SDS011;10101;52.204;9.910;2023-09-19T00:49:42;4.03;;;1.97;;
19877;SDS011;10101;52.204;9.910;2023-09-19T00:52:09;4.00;;;2.10;;
19877;SDS011;10101;52.204;9.910;2023-09-19T00:54:38;2.30;;;1.57;;
19877;SDS011;10101;52.204;9.910;2023-09-19T00:57:05;4.30;;;1.80;;
19877;SDS011;10101;52.204;9.910;2023-09-19T00:59:33;5.40;;;2.30;;
19877;SDS011;10101;52.204;9.910;2023-09-19T01:02:00;4.73;;;2.00;;
19877;SDS011;10101;52.204;9.910;2023-09-19T01:04:28;3.17;;;1.90;;
19877;SDS011;10101;52.204;9.910;2023-09-19T01:06:55;3.97;;;1.93;;
19877;SDS011;10101;52.204;9.910;2023-09-19T01:09:23;2.57;;;1.90;;
19877;SDS011;10101;52.204;9.910;2023-09-19T01:11:53;4.03;;;2.10;;
19877;SDS011;10101;52.204;9.910;2023-09-19T01:14:29;5.77;;;2.57;;
19877;SDS011;10101;52.204;9.910;2023-09-19T01:17:03;2.43;;;2.23;;
19877;SDS011;10101;52.204;9.910;2023-09-19T01:19:42;4.33;;;2.50;;
19877;SDS011;10101;52.204;9.910;2023-09-19T01:22:42;4.00;;;2.13;;
19877;SDS011;10101;52.204;9.910;2023-09-19T01:28:24;3.10;;;2.30;;
19877;SDS011;10101;52.204;9.910;2023-09-19T01:31:03;3.27;;;2.47;;
19877;SDS011;10101;52.204;9.910;2023-09-19T01:36:26;2.53;;;1.90;;
19877;SDS011;10101;52.204;9.910;2023-09-19T01:38:55;4.70;;;2.10;;
19877;SDS011;10101;52.204;9.910;2023-09-19T01:41:26;3.30;;;2.20;;
19877;SDS011;10101;52.204;9.910;2023-09-19T01:43:59;3.80;;;2.40;;
19877;SDS011;10101;52.204;9.910;2023-09-19T01:46:33;2.50;;;2.30;;
19877;SDS011;10101;52.204;9.910;2023-09-19T01:49:04;3.83;;;2.50;;
19877;SDS011;10101;52.204;9.910;2023-09-19T01:51:40;8.33;;;2.30;;
19877;SDS011;10101;52.204;9.910;2023-09-19T01:54:12;4.50;;;2.43;;
19877;SDS011;10101;52.204;9.910;2023-09-19T01:56:45;5.63;;;2.33;;
19877;SDS011;10101;52.204;9.910;2023-09-19T01:59:17;5.80;;;2.47;;
19877;SDS011;10101;52.204;9.910;2023-09-19T02:01:53;7.30;;;2.50;;
19877;SDS011;10101;52.204;9.910;2023-09-19T02:04:21;4.37;;;2.10;;
19877;SDS011;10101;52.204;9.910;2023-09-19T02:06:48;4.27;;;2.10;;
19877;SDS011;10101;52.204;9.910;2023-09-19T02:09:16;5.03;;;2.17;;
19877;SDS011;10101;52.204;9.910;2023-09-19T02:11:43;4.87;;;2.50;;
19877;SDS011;10101;52.204;9.910;2023-09-19T02:14:10;6.40;;;2.47;;
19877;SDS011;10101;52.204;9.910;2023-09-19T02:16:37;6.73;;;2.23;;
19877;SDS011;10101;52.204;9.910;2023-09-19T02:19:05;4.77;;;2.30;;
19877;SDS011;10101;52.204;9.910;2023-09-19T02:21:33;5.43;;;2.20;;
19877;SDS011;10101;52.204;9.910;2023-09-19T02:23:59;5.50;;;2.97;;
19877;SDS011;10101;52.204;9.910;2023-09-19T02:26:28;4.90;;;2.57;;
19877;SDS011;10101;52.204;9.910;2023-09-19T02:28:54;6.80;;;2.57;;
19877;SDS011;10101;52.204;9.910;2023-09-19T02:31:21;6.37;;;2.77;;
19877;SDS011;10101;52.204;9.910;2023-09-19T02:33:48;5.93;;;2.80;;
19877;SDS011;10101;52.204;9.910;2023-09-19T02:36:16;7.17;;;2.80;;
19877;SDS011;10101;52.204;9.910;2023-09-19T02:38:43;6.87;;;2.87;;
19877;SDS011;10101;52.204;9.910;2023-09-19T02:41:10;4.97;;;2.63;;
19877;SDS011;10101;52.204;9.910;2023-09-19T02:43:37;3.90;;;2.60;;
19877;SDS011;10101;52.204;9.910;2023-09-19T02:46:04;4.83;;;2.80;;
19877;SDS011;10101;52.204;9.910;2023-09-19T02:48:31;5.97;;;2.70;;
19877;SDS011;10101;52.204;9.910;2023-09-19T02:50:59;8.73;;;2.93;;
19877;SDS011;10101;52.204;9.910;2023-09-19T02:53:27;5.80;;;3.00;;
19877;SDS011;10101;52.204;9.910;2023-09-19T02:55:56;3.83;;;2.57;;
19877;SDS011;10101;52.204;9.910;2023-09-19T02:58:24;6.17;;;3.03;;
19877;SDS011;10101;52.204;9.910;2023-09-19T03:00:52;3.90;;;2.50;;
19877;SDS011;10101;52.204;9.910;2023-09-19T03:03:20;4.63;;;2.53;;
19877;SDS011;10101;52.204;9.910;2023-09-19T03:05:48;8.20;;;2.97;;
19877;SDS011;10101;52.204;9.910;2023-09-19T03:08:16;5.80;;;2.67;;
19877;SDS011;10101;52.204;9.910;2023-09-19T03:10:47;4.80;;;2.37;;
19877;SDS011;10101;52.204;9.910;2023-09-19T03:13:14;5.23;;;2.43;;
19877;SDS011;10101;52.204;9.910;2023-09-19T03:15:41;7.10;;;2.20;;
19877;SDS011;10101;52.204;9.910;2023-09-19T03:18:09;5.70;;;2.30;;
19877;SDS011;10101;52.204;9.910;2023-09-19T03:20:36;6.47;;;2.37;;
19877;SDS011;10101;52.204;9.910;2023-09-19T03:23:03;3.83;;;2.37;;
19877;SDS011;10101;52.204;9.910;2023-09-19T03:25:31;3.63;;;2.40;;
19877;SDS011;10101;52.204;9.910;2023-09-19T03:28:01;10.63;;;2.73;;
19877;SDS011;10101;52.204;9.910;2023-09-19T03:30:31;7.47;;;2.73;;
19877;SDS011;10101;52.204;9.910;2023-09-19T03:32:59;7.13;;;2.90;;
19877;SDS011;10101;52.204;9.910;2023-09-19T03:35:26;4.40;;;3.10;;
19877;SDS011;10101;52.204;9.910;2023-09-19T03:37:53;7.47;;;3.97;;
19877;SDS011;10101;52.204;9.910;2023-09-19T03:40:20;10.93;;;3.77;;
19877;SDS011;10101;52.204;9.910;2023-09-19T03:42:48;6.77;;;3.73;;
19877;SDS011;10101;52.204;9.910;2023-09-19T03:45:16;4.87;;;3.50;;
19877;SDS011;10101;52.204;9.910;2023-09-19T03:47:43;5.77;;;3.20;;
19877;SDS011;10101;52.204;9.910;2023-09-19T03:50:12;6.53;;;3.50;;
19877;SDS011;10101;52.204;9.910;2023-09-19T03:52:40;6.10;;;3.40;;
19877;SDS011;10101;52.204;9.910;2023-09-19T03:55:07;7.40;;;4.17;;
19877;SDS011;10101;52.204;9.910;2023-09-19T03:57:34;8.23;;;3.87;;
19877;SDS011;10101;52.204;9.910;2023-09-19T04:00:01;7.47;;;4.10;;
19877;SDS011;10101;52.204;9.910;2023-09-19T04:02:31;7.13;;;4.17;;
19877;SDS011;10101;52.204;9.910;2023-09-19T04:04:58;10.63;;;4.87;;
19877;SDS011;10101;52.204;9.910;2023-09-19T04:07:25;8.20;;;4.00;;
19877;SDS011;10101;52.204;9.910;2023-09-19T04:09:54;5.90;;;3.80;;
19877;SDS011;10101;52.204;9.910;2023-09-19T04:12:20;8.37;;;4.13;;
19877;SDS011;10101;52.204;9.910;2023-09-19T04:14:47;10.63;;;4.43;;
19877;SDS011;10101;52.204;9.910;2023-09-19T04:17:15;6.07;;;4.27;;
19877;SDS011;10101;52.204;9.910;2023-09-19T04:19:43;6.97;;;3.93;;
19877;SDS011;10101;52.204;9.910;2023-09-19T04:22:10;8.27;;;4.17;;
19877;SDS011;10101;52.204;9.910;2023-09-19T04:24:37;9.97;;;4.40;;
19877;SDS011;10101;52.204;9.910;2023-09-19T04:27:04;10.27;;;4.63;;
19877;SDS011;10101;52.204;9.910;2023-09-19T04:29:32;12.53;;;4.80;;
19877;SDS011;10101;52.204;9.910;2023-09-19T04:31:59;8.17;;;4.43;;
19877;SDS011;10101;52.204;9.910;2023-09-19T04:34:25;6.10;;;4.10;;
19877;SDS011;10101;52.204;9.910;2023-09-19T04:36:54;8.13;;;3.80;;
19877;SDS011;10101;52.204;9.910;2023-09-19T04:39:23;9.30;;;4.10;;
19877;SDS011;10101;52.204;9.910;2023-09-19T04:41:51;11.57;;;4.00;;
19877;SDS011;10101;52.204;9.910;2023-09-19T04:44:18;6.60;;;3.27;;
19877;SDS011;10101;52.204;9.910;2023-09-19T04:46:44;8.40;;;4.40;;
19877;SDS011;10101;52.204;9.910;2023-09-19T04:49:12;9.10;;;3.70;;
19877;SDS011;10101;52.204;9.910;2023-09-19T04:51:39;5.60;;;3.50;;
19877;SDS011;10101;52.204;9.910;2023-09-19T04:54:08;6.17;;;3.60;;
19877;SDS011;10101;52.204;9.910;2023-09-19T04:56:35;6.97;;;3.60;;
19877;SDS011;10101;52.204;9.910;2023-09-19T04:59:05;6.40;;;3.10;;
19877;SDS011;10101;52.204;9.910;2023-09-19T05:01:32;7.33;;;3.17;;
19877;SDS011;10101;52.204;9.910;2023-09-19T05:03:58;10.00;;;3.30;;
19877;SDS011;10101;52.204;9.910;2023-09-19T05:06:24;7.10;;;3.00;;
19877;SDS011;10101;52.204;9.910;2023-09-19T05:08:52;7.20;;;3.17;;
19877;SDS011;10101;52.204;9.910;2023-09-19T05:11:20;7.57;;;3.27;;
19877;SDS011;10101;52.204;9.910;2023-09-19T05:13:48;7.80;;;3.27;;
19877;SDS011;10101;52.204;9.910;2023-09-19T05:16:15;6.40;;;3.50;;
19877;SDS011;10101;52.204;9.910;2023-09-19T05:18:42;11.23;;;3.43;;
19877;SDS011;10101;52.204;9.910;2023-09-19T05:21:08;10.50;;;4.20;;
19877;SDS011;10101;52.204;9.910;2023-09-19T05:23:35;7.03;;;3.53;;
19877;SDS011;10101;52.204;9.910;2023-09-19T05:26:02;7.00;;;3.90;;
19877;SDS011;10101;52.204;9.910;2023-09-19T05:28:31;9.20;;;3.60;;
19877;SDS011;10101;52.204;9.910;2023-09-19T05:31:01;10.33;;;3.43;;
19877;SDS011;10101;52.204;9.910;2023-09-19T05:33:28;7.27;;;3.43;;
19877;SDS011;10101;52.204;9.910;2023-09-19T05:35:56;9.67;;;3.50;;
19877;SDS011;10101;52.204;9.910;2023-09-19T05:38:23;12.23;;;3.60;;
19877;SDS011;10101;52.204;9.910;2023-09-19T05:40:51;5.93;;;3.40;;
19877;SDS011;10101;52.204;9.910;2023-09-19T05:43:19;7.27;;;3.20;;
19877;SDS011;10101;52.204;9.910;2023-09-19T05:45:47;5.70;;;3.63;;
19877;SDS011;10101;52.204;9.910;2023-09-19T05:48:14;8.10;;;3.83;;
19877;SDS011;10101;52.204;9.910;2023-09-19T05:50:41;10.93;;;3.50;;
19877;SDS011;10101;52.204;9.910;2023-09-19T05:53:09;9.30;;;3.70;;
19877;SDS011;10101;52.204;9.910;2023-09-19T05:55:37;6.30;;;2.93;;
19877;SDS011;10101;52.204;9.910;2023-09-19T05:58:03;9.00;;;3.30;;
19877;SDS011;10101;52.204;9.910;2023-09-19T06:00:30;8.23;;;3.80;;
19877;SDS011;10101;52.204;9.910;2023-09-19T06:02:58;8.50;;;3.30;;
19877;SDS011;10101;52.204;9.910;2023-09-19T06:05:26;5.67;;;2.83;;
19877;SDS011;10101;52.204;9.910;2023-09-19T06:07:55;5.97;;;3.10;;
19877;SDS011;10101;52.204;9.910;2023-09-19T06:10:25;4.93;;;2.60;;
19877;SDS011;10101;52.204;9.910;2023-09-19T06:12:53;7.17;;;2.43;;
19877;SDS011;10101;52.204;9.910;2023-09-19T06:15:23;10.33;;;3.23;;
19877;SDS011;10101;52.204;9.910;2023-09-19T06:17:51;9.30;;;3.13;;
19877;SDS011;10101;52.204;9.910;2023-09-19T06:20:22;12.30;;;3.00;;
19877;SDS011;10101;52.204;9.910;2023-09-19T06:22:50;13.23;;;3.50;;
19877;SDS011;10101;52.204;9.910;2023-09-19T06:25:17;8.40;;;3.43;;
19877;SDS011;10101;52.204;9.910;2023-09-19T06:27:45;13.03;;;3.03;;
19877;SDS011;10101;52.204;9.910;2023-09-19T06:30:12;7.50;;;2.80;;
19877;SDS011;10101;52.204;9.910;2023-09-19T06:32:39;7.90;;;2.87;;
19877;SDS011;10101;52.204;9.910;2023-09-19T06:35:09;8.07;;;2.97;;
19877;SDS011;10101;52.204;9.910;2023-09-19T06:37:37;9.67;;;2.80;;
19877;SDS011;10101;52.204;9.910;2023-09-19T06:40:06;10.30;;;3.00;;
19877;SDS011;10101;52.204;9.910;2023-09-19T06:42:38;12.80;;;3.10;;
19877;SDS011;10101;52.204;9.910;2023-09-19T06:45:06;8.53;;;2.90;;
19877;SDS011;10101;52.204;9.910;2023-09-19T06:47:34;6.57;;;2.53;;
19877;SDS011;10101;52.204;9.910;2023-09-19T06:50:01;6.87;;;2.83;;
19877;SDS011;10101;52.204;9.910;2023-09-19T06:52:29;7.90;;;3.07;;
19877;SDS011;10101;52.204;9.910;2023-09-19T06:54:58;8.90;;;2.73;;
19877;SDS011;10101;52.204;9.910;2023-09-19T06:57:25;9.60;;;2.43;;
19877;SDS011;10101;52.204;9.910;2023-09-19T06:59:52;8.13;;;2.23;;
19877;SDS011;10101;52.204;9.910;2023-09-19T07:02:19;9.00;;;2.90;;
19877;SDS011;10101;52.204;9.910;2023-09-19T07:04:47;11.60;;;2.80;;
19877;SDS011;10101;52.204;9.910;2023-09-19T07:07:14;9.90;;;2.40;;
19877;SDS011;10101;52.204;9.910;2023-09-19T07:09:41;10.27;;;2.20;;
19877;SDS011;10101;52.204;9.910;2023-09-19T07:12:09;5.13;;;1.83;;
19877;SDS011;10101;52.204;9.910;2023-09-19T07:14:37;6.87;;;1.90;;
19877;SDS011;10101;52.204;9.910;2023-09-19T07:17:03;7.20;;;2.17;;
19877;SDS011;10101;52.204;9.910;2023-09-19T07:19:30;7.73;;;1.60;;
19877;SDS011;10101;52.204;9.910;2023-09-19T07:21:57;6.20;;;1.97;;
19877;SDS011;10101;52.204;9.910;2023-09-19T07:24:27;6.57;;;2.00;;
19877;SDS011;10101;52.204;9.910;2023-09-19T07:26:54;7.63;;;1.67;;
19877;SDS011;10101;52.204;9.910;2023-09-19T07:29:22;6.43;;;1.67;;
19877;SDS011;10101;52.204;9.910;2023-09-19T07:31:51;8.17;;;1.90;;
19877;SDS011;10101;52.204;9.910;2023-09-19T07:34:18;8.47;;;1.80;;
19877;SDS011;10101;52.204;9.910;2023-09-19T07:36:45;5.80;;;2.13;;
19877;SDS011;10101;52.204;9.910;2023-09-19T07:39:12;10.73;;;1.90;;
19877;SDS011;10101;52.204;9.910;2023-09-19T07:41:39;11.83;;;2.40;;
19877;SDS011;10101;52.204;9.910;2023-09-19T07:44:07;6.77;;;1.60;;
19877;SDS011;10101;52.204;9.910;2023-09-19T07:46:36;7.87;;;1.63;;
19877;SDS011;10101;52.204;9.910;2023-09-19T07:49:03;6.40;;;1.80;;
19877;SDS011;10101;52.204;9.910;2023-09-19T07:51:30;6.53;;;1.90;;
19877;SDS011;10101;52.204;9.910;2023-09-19T07:53:58;6.27;;;1.67;;
19877;SDS011;10101;52.204;9.910;2023-09-19T07:56:24;6.20;;;1.90;;
19877;SDS011;10101;52.204;9.910;2023-09-19T07:58:52;7.03;;;1.80;;
19877;SDS011;10101;52.204;9.910;2023-09-19T08:01:19;9.27;;;1.93;;
19877;SDS011;10101;52.204;9.910;2023-09-19T08:03:50;7.83;;;1.77;;
19877;SDS011;10101;52.204;9.910;2023-09-19T08:06:16;9.70;;;1.50;;
19877;SDS011;10101;52.204;9.910;2023-09-19T08:08:44;10.90;;;2.03;;
19877;SDS011;10101;52.204;9.910;2023-09-19T08:11:10;4.90;;;1.60;;
19877;SDS011;10101;52.204;9.910;2023-09-19T08:13:37;9.03;;;1.73;;
19877;SDS011;10101;52.204;9.910;2023-09-19T08:16:08;4.93;;;1.47;;
19877;SDS011;10101;52.204;9.910;2023-09-19T08:18:35;6.93;;;2.00;;
19877;SDS011;10101;52.204;9.910;2023-09-19T08:21:03;6.40;;;1.87;;
19877;SDS011;10101;52.204;9.910;2023-09-19T08:23:30;7.03;;;1.60;;
19877;SDS011;10101;52.204;9.910;2023-09-19T08:25:57;6.60;;;2.00;;
19877;SDS011;10101;52.204;9.910;2023-09-19T08:28:26;6.33;;;1.67;;
19877;SDS011;10101;52.204;9.910;2023-09-19T08:30:54;6.77;;;1.73;;
19877;SDS011;10101;52.204;9.910;2023-09-19T08:33:23;11.73;;;1.90;;
19877;SDS011;10101;52.204;9.910;2023-09-19T08:35:49;6.23;;;1.37;;
19877;SDS011;10101;52.204;9.910;2023-09-19T08:38:18;7.67;;;1.73;;
19877;SDS011;10101;52.204;9.910;2023-09-19T08:40:45;6.87;;;1.53;;
19877;SDS011;10101;52.204;9.910;2023-09-19T08:43:12;4.50;;;1.10;;
19877;SDS011;10101;52.204;9.910;2023-09-19T08:45:38;6.00;;;1.40;;
19877;SDS011;10101;52.204;9.910;2023-09-19T08:48:12;4.40;;;1.43;;
19877;SDS011;10101;52.204;9.910;2023-09-19T08:50:48;8.80;;;1.40;;
19877;SDS011;10101;52.204;9.910;2023-09-19T08:53:21;8.07;;;1.33;;
19877;SDS011;10101;52.204;9.910;2023-09-19T08:55:54;6.87;;;1.60;;
19877;SDS011;10101;52.204;9.910;2023-09-19T08:58:22;13.23;;;1.60;;
19877;SDS011;10101;52.204;9.910;2023-09-19T09:00:54;3.40;;;1.43;;
19877;SDS011;10101;52.204;9.910;2023-09-19T09:03:22;5.37;;;1.50;;
19877;SDS011;10101;52.204;9.910;2023-09-19T09:05:50;5.70;;;1.20;;
19877;SDS011;10101;52.204;9.910;2023-09-19T09:08:18;5.80;;;1.67;;
19877;SDS011;10101;52.204;9.910;2023-09-19T09:10:47;6.57;;;1.60;;
19877;SDS011;10101;52.204;9.910;2023-09-19T09:13:15;5.07;;;1.17;;
19877;SDS011;10101;52.204;9.910;2023-09-19T09:15:43;6.57;;;1.50;;
19877;SDS011;10101;52.204;9.910;2023-09-19T09:18:10;6.83;;;1.60;;
19877;SDS011;10101;52.204;9.910;2023-09-19T09:20:38;5.60;;;1.57;;
19877;SDS011;10101;52.204;9.910;2023-09-19T09:23:05;5.10;;;1.37;;
19877;SDS011;10101;52.204;9.910;2023-09-19T09:28:21;7.97;;;1.73;;
19877;SDS011;10101;52.204;9.910;2023-09-19T09:30:49;5.47;;;1.40;;
19877;SDS011;10101;52.204;9.910;2023-09-19T09:33:16;7.07;;;1.87;;
19877;SDS011;10101;52.204;9.910;2023-09-19T09:35:47;5.97;;;1.43;;
19877;SDS011;10101;52.204;9.910;2023-09-19T09:38:17;4.67;;;1.53;;
19877;SDS011;10101;52.204;9.910;2023-09-19T09:40:48;8.00;;;1.50;;
19877;SDS011;10101;52.204;9.910;2023-09-19T09:43:28;6.10;;;1.30;;
19877;SDS011;10101;52.204;9.910;2023-09-19T09:46:10;9.07;;;1.40;;
19877;SDS011;10101;52.204;9.910;2023-09-19T09:48:55;6.97;;;1.67;;
19877;SDS011;10101;52.204;9.910;2023-09-19T09:51:38;5.07;;;1.40;;
19877;SDS011;10101;52.204;9.910;2023-09-19T09:54:11;6.43;;;1.50;;
19877;SDS011;10101;52.204;9.910;2023-09-19T09:56:51;7.23;;;1.97;;
19877;SDS011;10101;52.204;9.910;2023-09-19T10:02:16;11.23;;;1.50;;
19877;SDS011;10101;52.204;9.910;2023-09-19T10:04:54;6.93;;;1.47;;
19877;SDS011;10101;52.204;9.910;2023-09-19T10:07:40;5.30;;;1.20;;
19877;SDS011;10101;52.204;9.910;2023-09-19T10:10:13;5.40;;;1.30;;
19877;SDS011;10101;52.204;9.910;2023-09-19T10:12:46;6.17;;;1.63;;
19877;SDS011;10101;52.204;9.910;2023-09-19T10:15:15;6.93;;;1.50;;
19877;SDS011;10101;52.204;9.910;2023-09-19T10:17:46;3.17;;;1.27;;
19877;SDS011;10101;52.204;9.910;2023-09-19T10:20:13;5.20;;;1.70;;
19877;SDS011;10101;52.204;9.910;2023-09-19T10:22:59;7.57;;;1.53;;
19877;SDS011;10101;52.204;9.910;2023-09-19T10:25:27;6.53;;;1.57;;
19877;SDS011;10101;52.204;9.910;2023-09-19T10:27:55;2.50;;;1.37;;
19877;SDS011;10101;52.204;9.910;2023-09-19T10:30:25;9.63;;;1.73;;
19877;SDS011;10101;52.204;9.910;2023-09-19T10:32:56;6.37;;;1.40;;
19877;SDS011;10101;52.204;9.910;2023-09-19T10:35:26;5.53;;;1.80;;
19877;SDS011;10101;52.204;9.910;2023-09-19T10:37:54;6.67;;;1.40;;
19877;SDS011;10101;52.204;9.910;2023-09-19T10:40:24;4.43;;;1.47;;
19877;SDS011;10101;52.204;9.910;2023-09-19T10:42:57;8.77;;;1.77;;
19877;SDS011;10101;52.204;9.910;2023-09-19T10:45:30;5.10;;;1.37;;
19877;SDS011;10101;52.204;9.910;2023-09-19T10:47:58;7.67;;;1.77;;
19877;SDS011;10101;52.204;9.910;2023-09-19T10:50:25;6.40;;;1.80;;
19877;SDS011;10101;52.204;9.910;2023-09-19T10:52:56;10.33;;;1.77;;
19877;SDS011;10101;52.204;9.910;2023-09-19T10:55:29;10.63;;;1.87;;
19877;SDS011;10101;52.204;9.910;2023-09-19T10:57:58;5.93;;;1.67;;
19877;SDS011;10101;52.204;9.910;2023-09-19T11:00:28;7.30;;;2.10;;
19877;SDS011;10101;52.204;9.910;2023-09-19T11:03:19;7.87;;;1.67;;
19877;SDS011;10101;52.204;9.910;2023-09-19T11:06:04;6.93;;;1.90;;
19877;SDS011;10101;52.204;9.910;2023-09-19T11:11:48;4.40;;;1.50;;
19877;SDS011;10101;52.204;9.910;2023-09-19T11:14:41;7.10;;;1.80;;
19877;SDS011;10101;52.204;9.910;2023-09-19T11:20:18;8.43;;;2.17;;
19877;SDS011;10101;52.204;9.910;2023-09-19T11:23:17;6.20;;;1.57;;
19877;SDS011;10101;52.204;9.910;2023-09-19T11:25:47;6.13;;;1.80;;
19877;SDS011;10101;52.204;9.910;2023-09-19T11:28:33;7.80;;;2.00;;
19877;SDS011;10101;52.204;9.910;2023-09-19T11:34:43;5.47;;;1.60;;
19877;SDS011;10101;52.204;9.910;2023-09-19T11:40:40;9.07;;;2.17;;
19877;SDS011;10101;52.204;9.910;2023-09-19T11:43:29;7.03;;;1.97;;
19877;SDS011;10101;52.204;9.910;2023-09-19T11:46:05;7.70;;;2.10;;
19877;SDS011;10101;52.204;9.910;2023-09-19T11:48:32;4.03;;;1.70;;
19877;SDS011;10101;52.204;9.910;2023-09-19T11:51:10;6.37;;;1.80;;
19877;SDS011;10101;52.204;9.910;2023-09-19T11:53:44;5.97;;;1.67;;
19877;SDS011;10101;52.204;9.910;2023-09-19T11:56:13;7.27;;;2.07;;
19877;SDS011;10101;52.204;9.910;2023-09-19T11:58:42;6.00;;;1.87;;
19877;SDS011;10101;52.204;9.910;2023-09-19T12:01:10;5.27;;;1.57;;
19877;SDS011;10101;52.204;9.910;2023-09-19T12:03:45;7.23;;;1.73;;
19877;SDS011;10101;52.204;9.910;2023-09-19T12:06:14;3.90;;;1.33;;
19877;SDS011;10101;52.204;9.910;2023-09-19T12:08:42;8.27;;;1.90;;
19877;SDS011;10101;52.204;9.910;2023-09-19T12:11:12;4.97;;;1.73;;
19877;SDS011;10101;52.204;9.910;2023-09-19T12:13:41;6.93;;;1.77;;
19877;SDS011;10101;52.204;9.910;2023-09-19T12:16:14;7.03;;;1.60;;
19877;SDS011;10101;52.204;9.910;2023-09-19T12:18:42;5.27;;;1.70;;
19877;SDS011;10101;52.204;9.910;2023-09-19T12:21:22;6.27;;;2.13;;
19877;SDS011;10101;52.204;9.910;2023-09-19T12:23:59;6.17;;;1.60;;
19877;SDS011;10101;52.204;9.910;2023-09-19T12:26:37;5.33;;;1.60;;
19877;SDS011;10101;52.204;9.910;2023-09-19T12:29:10;4.80;;;1.70;;
19877;SDS011;10101;52.204;9.910;2023-09-19T12:31:49;6.30;;;1.73;;
19877;SDS011;10101;52.204;9.910;2023-09-19T12:34:19;5.20;;;1.87;;
19877;SDS011;10101;52.204;9.910;2023-09-19T12:36:47;8.17;;;1.83;;
19877;SDS011;10101;52.204;9.910;2023-09-19T12:39:24;6.43;;;1.67;;
19877;SDS011;10101;52.204;9.910;2023-09-19T12:41:51;5.60;;;1.90;;
19877;SDS011;10101;52.204;9.910;2023-09-19T12:44:19;7.70;;;1.87;;
19877;SDS011;10101;52.204;9.910;2023-09-19T12:46:48;8.00;;;1.90;;
19877;SDS011;10101;52.204;9.910;2023-09-19T12:49:15;8.33;;;1.87;;
19877;SDS011;10101;52.204;9.910;2023-09-19T12:51:43;6.70;;;1.73;;
19877;SDS011;10101;52.204;9.910;2023-09-19T12:54:12;4.77;;;1.80;;
19877;SDS011;10101;52.204;9.910;2023-09-19T12:56:41;6.40;;;1.70;;
19877;SDS011;10101;52.204;9.910;2023-09-19T12:59:11;6.37;;;1.50;;
19877;SDS011;10101;52.204;9.910;2023-09-19T13:01:39;5.97;;;1.93;;
19877;SDS011;10101;52.204;9.910;2023-09-19T13:04:10;4.97;;;1.57;;
19877;SDS011;10101;52.204;9.910;2023-09-19T13:06:43;5.83;;;1.70;;
19877;SDS011;10101;52.204;9.910;2023-09-19T13:09:11;6.10;;;1.93;;
19877;SDS011;10101;52.204;9.910;2023-09-19T13:11:39;5.93;;;1.87;;
19877;SDS011;10101;52.204;9.910;2023-09-19T13:14:13;5.17;;;1.67;;
19877;SDS011;10101;52.204;9.910;2023-09-19T13:16:52;2.93;;;1.80;;
19877;SDS011;10101;52.204;9.910;2023-09-19T13:19:34;6.43;;;1.87;;
19877;SDS011;10101;52.204;9.910;2023-09-19T13:22:01;7.43;;;1.93;;
19877;SDS011;10101;52.204;9.910;2023-09-19T13:24:30;5.43;;;1.90;;
19877;SDS011;10101;52.204;9.910;2023-09-19T13:26:58;5.47;;;1.87;;
19877;SDS011;10101;52.204;9.910;2023-09-19T13:29:25;5.10;;;1.60;;
19877;SDS011;10101;52.204;9.910;2023-09-19T13:31:52;5.20;;;2.03;;
19877;SDS011;10101;52.204;9.910;2023-09-19T13:34:19;5.27;;;1.80;;
19877;SDS011;10101;52.204;9.910;2023-09-19T13:36:46;5.20;;;1.80;;
19877;SDS011;10101;52.204;9.910;2023-09-19T13:39:13;6.43;;;2.03;;
19877;SDS011;10101;52.204;9.910;2023-09-19T13:41:41;6.40;;;1.93;;
19877;SDS011;10101;52.204;9.910;2023-09-19T13:44:10;3.63;;;1.53;;
19877;SDS011;10101;52.204;9.910;2023-09-19T13:46:36;6.40;;;1.80;;
19877;SDS011;10101;52.204;9.910;2023-09-19T13:49:03;4.50;;;1.70;;
19877;SDS011;10101;52.204;9.910;2023-09-19T13:51:30;4.40;;;1.77;;
19877;SDS011;10101;52.204;9.910;2023-09-19T13:53:57;6.77;;;1.90;;
19877;SDS011;10101;52.204;9.910;2023-09-19T13:56:24;3.97;;;1.70;;
19877;SDS011;10101;52.204;9.910;2023-09-19T13:58:54;6.73;;;1.80;;
19877;SDS011;10101;52.204;9.910;2023-09-19T14:01:20;5.63;;;2.13;;
19877;SDS011;10101;52.204;9.910;2023-09-19T14:03:47;3.13;;;1.60;;
19877;SDS011;10101;52.204;9.910;2023-09-19T14:06:15;4.37;;;1.97;;
19877;SDS011;10101;52.204;9.910;2023-09-19T14:08:42;5.33;;;2.10;;
19877;SDS011;10101;52.204;9.910;2023-09-19T14:11:09;4.40;;;2.00;;
19877;SDS011;10101;52.204;9.910;2023-09-19T14:13:36;6.83;;;2.10;;
19877;SDS011;10101;52.204;9.910;2023-09-19T14:16:04;4.87;;;1.90;;
19877;SDS011;10101;52.204;9.910;2023-09-19T14:18:31;5.10;;;1.80;;
19877;SDS011;10101;52.204;9.910;2023-09-19T14:21:01;11.77;;;1.83;;
19877;SDS011;10101;52.204;9.910;2023-09-19T14:23:33;5.60;;;2.10;;
19877;SDS011;10101;52.204;9.910;2023-09-19T14:26:01;5.03;;;1.60;;
19877;SDS011;10101;52.204;9.910;2023-09-19T14:28:28;6.80;;;2.17;;
19877;SDS011;10101;52.204;9.910;2023-09-19T14:30:55;4.00;;;1.50;;
19877;SDS011;10101;52.204;9.910;2023-09-19T14:33:23;5.53;;;1.70;;
19877;SDS011;10101;52.204;9.910;2023-09-19T14:35:50;6.83;;;1.60;;
19877;SDS011;10101;52.204;9.910;2023-09-19T14:38:17;2.97;;;1.50;;
19877;SDS011;10101;52.204;9.910;2023-09-19T14:40:44;4.93;;;1.67;;
19877;SDS011;10101;52.204;9.910;2023-09-19T14:43:11;7.30;;;1.63;;
19877;SDS011;10101;52.204;9.910;2023-09-19T14:45:37;6.10;;;1.77;;
19877;SDS011;10101;52.204;9.910;2023-09-19T14:48:05;3.73;;;1.43;;
19877;SDS011;10101;52.204;9.910;2023-09-19T14:50:34;4.70;;;1.50;;
19877;SDS011;10101;52.204;9.910;2023-09-19T14:53:00;4.97;;;1.70;;
19877;SDS011;10101;52.204;9.910;2023-09-19T14:55:28;7.87;;;1.80;;
19877;SDS011;10101;52.204;9.910;2023-09-19T14:57:59;8.07;;;1.77;;
19877;SDS011;10101;52.204;9.910;2023-09-19T15:00:27;3.97;;;1.50;;
19877;SDS011;10101;52.204;9.910;2023-09-19T15:02:54;5.47;;;1.60;;
19877;SDS011;10101;52.204;9.910;2023-09-19T15:05:21;3.73;;;1.60;;
19877;SDS011;10101;52.204;9.910;2023-09-19T15:07:49;4.67;;;1.50;;
19877;SDS011;10101;52.204;9.910;2023-09-19T15:10:17;4.53;;;1.30;;
19877;SDS011;10101;52.204;9.910;2023-09-19T15:12:44;2.90;;;1.27;;
19877;SDS011;10101;52.204;9.910;2023-09-19T15:15:11;14.07;;;1.93;;
19877;SDS011;10101;52.204;9.910;2023-09-19T15:17:38;6.37;;;1.50;;
19877;SDS011;10101;52.204;9.910;2023-09-19T15:20:05;2.40;;;1.40;;
19877;SDS011;10101;52.204;9.910;2023-09-19T15:22:33;4.20;;;1.70;;